Ashern, Canada
Current Conditions -  °F | °C
As of 9:00 AM on Thursday 30 Oct 2014 (Local Time) from CYDN Reporting Station
Overcast Overcast  
Wind Chill: 22°   Ceiling: 3400
Heat Index: 30°   Visibility: 9mi
Dew Point: 23°   Wind: 9mph
Humidity: 75%   Direction: 330°NNW
Pressure: 30.39"   Gusts: NA
Location:  51.18°N, 98.33°W
Report Text: CYDN 301400Z AUTO 33008KT 9SM OVC034 M01/M05 A3039 RMK SLP307
Loading
Personal Weather Stations






























Interactive Weather Map
Tropical Storm Tracking
New forecast layout! Learn more

10-Day Weather Forecast

Advertisements
Track Severe Weather on mobile